sensor_id;sensor_type;location;lat;lon;timestamp;pressure;altitude;pressure_sealevel;temperature;humidity
24013;BME280;12220;50.194;18.948;2023-10-13T04:08:21;101895.59;;;15.79;83.58
24013;BME280;12220;50.194;18.948;2023-10-13T04:10:33;101905.65;;;15.80;83.54
24013;BME280;12220;50.194;18.948;2023-10-13T04:12:46;101888.73;;;15.85;83.62
24013;BME280;12220;50.194;18.948;2023-10-13T04:14:59;101901.55;;;15.86;83.46
24013;BME280;12220;50.194;18.948;2023-10-13T04:17:14;101896.03;;;15.86;83.29
24013;BME280;12220;50.194;18.948;2023-10-13T04:19:15;101885.97;;;15.85;83.16
24013;BME280;12220;50.194;18.948;2023-10-13T04:21:29;101885.21;;;15.83;83.05
24013;BME280;12220;50.194;18.948;2023-10-13T04:23:43;101890.73;;;15.83;83.00
24013;BME280;12220;50.194;18.948;2023-10-13T04:25:56;101897.24;;;15.82;82.97
24013;BME280;12220;50.194;18.948;2023-10-13T04:28:14;101896.37;;;15.81;82.98
24013;BME280;12220;50.194;18.948;2023-10-13T04:30:27;101887.19;;;15.81;82.96
24013;BME280;12220;50.194;18.948;2023-10-13T04:32:38;101894.60;;;15.80;82.96
24013;BME280;12220;50.194;18.948;2023-10-13T04:34:47;101891.84;;;15.80;82.98
24013;BME280;12220;50.194;18.948;2023-10-13T04:37:00;101894.60;;;15.80;82.97
24013;BME280;12220;50.194;18.948;2023-10-13T04:39:14;101892.59;;;15.82;83.06
24013;BME280;12220;50.194;18.948;2023-10-13T04:41:32;101897.89;;;15.85;83.05
24013;BME280;12220;50.194;18.948;2023-10-13T04:43:42;101895.02;;;15.87;83.01
24013;BME280;12220;50.194;18.948;2023-10-13T04:45:59;101894.89;;;15.89;82.96
24013;BME280;12220;50.194;18.948;2023-10-13T04:48:11;101895.68;;;15.91;82.96
24013;BME280;12220;50.194;18.948;2023-10-13T04:50:28;101898.33;;;15.92;82.94
24013;BME280;12220;50.194;18.948;2023-10-13T04:52:49;101898.21;;;15.94;82.93
24013;BME280;12220;50.194;18.948;2023-10-13T04:55:11;101909.15;;;15.95;82.94
24013;BME280;12220;50.194;18.948;2023-10-13T04:57:32;101912.66;;;15.97;82.89
24013;BME280;12220;50.194;18.948;2023-10-13T04:59:40;101916.33;;;15.98;82.91
24013;BME280;12220;50.194;18.948;2023-10-13T05:01:53;101918.97;;;15.99;82.89
24013;BME280;12220;50.194;18.948;2023-10-13T05:04:09;101920.74;;;16.00;82.84
24013;BME280;12220;50.194;18.948;2023-10-13T05:06:22;101879.80;;;15.68;82.76
24013;BME280;12220;50.194;18.948;2023-10-13T05:08:35;101922.60;;;16.00;82.74
24013;BME280;12220;50.194;18.948;2023-10-13T05:10:48;101918.10;;;15.99;82.77
24013;BME280;12220;50.194;18.948;2023-10-13T05:13:03;101927.27;;;15.99;82.78
24013;BME280;12220;50.194;18.948;2023-10-13T05:15:24;101928.14;;;16.00;82.77
24013;BME280;12220;50.194;18.948;2023-10-13T05:17:45;101926.27;;;16.00;82.77
24013;BME280;12220;50.194;18.948;2023-10-13T05:20:07;101935.44;;;16.01;82.79
24013;BME280;12220;50.194;18.948;2023-10-13T05:22:28;101927.14;;;16.01;82.84
24013;BME280;12220;50.194;18.948;2023-10-13T05:24:49;101935.31;;;16.02;82.84
24013;BME280;12220;50.194;18.948;2023-10-13T05:27:11;101941.07;;;15.99;82.99
24013;BME280;12220;50.194;18.948;2023-10-13T05:29:32;101937.53;;;15.97;83.11
24013;BME280;12220;50.194;18.948;2023-10-13T05:31:54;101950.46;;;15.97;83.26
24013;BME280;12220;50.194;18.948;2023-10-13T05:34:15;101944.07;;;15.96;83.39
24013;BME280;12220;50.194;18.948;2023-10-13T05:36:36;101946.84;;;15.96;83.52
24013;BME280;12220;50.194;18.948;2023-10-13T05:38:58;101948.58;;;15.97;83.63
24013;BME280;12220;50.194;18.948;2023-10-13T05:41:19;101944.83;;;15.98;83.68
24013;BME280;12220;50.194;18.948;2023-10-13T05:43:41;101947.47;;;16.00;83.75
24013;BME280;12220;50.194;18.948;2023-10-13T05:46:03;101953.91;;;16.00;83.78
24013;BME280;12220;50.194;18.948;2023-10-13T05:48:23;101954.66;;;16.02;83.85
24013;BME280;12220;50.194;18.948;2023-10-13T05:50:45;101954.55;;;16.04;83.93
24013;BME280;12220;50.194;18.948;2023-10-13T05:53:06;101965.36;;;16.07;84.00
24013;BME280;12220;50.194;18.948;2023-10-13T05:55:29;101965.13;;;16.10;84.05
24013;BME280;12220;50.194;18.948;2023-10-13T05:57:49;101965.80;;;16.14;84.12
24013;BME280;12220;50.194;18.948;2023-10-13T06:00:11;101963.80;;;16.16;84.13
24013;BME280;12220;50.194;18.948;2023-10-13T06:02:32;101966.45;;;16.17;84.17
24013;BME280;12220;50.194;18.948;2023-10-13T06:04:53;101962.70;;;16.18;84.25
24013;BME280;12220;50.194;18.948;2023-10-13T06:07:14;101951.65;;;16.18;84.53
24013;BME280;12220;50.194;18.948;2023-10-13T06:09:36;101951.52;;;16.20;84.50
24013;BME280;12220;50.194;18.948;2023-10-13T06:11:57;101962.34;;;16.23;84.53
24013;BME280;12220;50.194;18.948;2023-10-13T06:14:19;101962.11;;;16.26;84.61
24013;BME280;12220;50.194;18.948;2023-10-13T06:16:40;101965.55;;;16.30;84.68
24013;BME280;12220;50.194;18.948;2023-10-13T06:19:02;101965.20;;;16.34;84.74
24013;BME280;12220;50.194;18.948;2023-10-13T06:21:23;101967.60;;;16.39;84.76
24013;BME280;12220;50.194;18.948;2023-10-13T06:23:44;101919.82;;;16.13;84.75
24013;BME280;12220;50.194;18.948;2023-10-13T06:26:06;101972.66;;;16.45;84.78
24013;BME280;12220;50.194;18.948;2023-10-13T06:28:27;101924.88;;;16.19;84.76
24013;BME280;12220;50.194;18.948;2023-10-13T06:30:58;101976.10;;;16.49;84.81
24013;BME280;12220;50.194;18.948;2023-10-13T06:33:10;101982.49;;;16.49;84.91
24013;BME280;12220;50.194;18.948;2023-10-13T06:35:12;101978.62;;;16.52;84.99
24013;BME280;12220;50.194;18.948;2023-10-13T06:37:19;101984.91;;;16.54;85.22
24013;BME280;12220;50.194;18.948;2023-10-13T06:39:27;101980.16;;;16.56;85.43
24013;BME280;12220;50.194;18.948;2023-10-13T06:41:37;101981.71;;;16.60;85.37
24013;BME280;12220;50.194;18.948;2023-10-13T06:43:46;101989.63;;;16.65;85.40
24013;BME280;12220;50.194;18.948;2023-10-13T06:46:08;101993.82;;;16.70;85.32
24013;BME280;12220;50.194;18.948;2023-10-13T06:48:17;101988.05;;;16.73;85.27
24013;BME280;12220;50.194;18.948;2023-10-13T06:50:21;101986.82;;;16.78;85.31
24013;BME280;12220;50.194;18.948;2023-10-13T06:52:25;101988.33;;;16.82;85.20
24013;BME280;12220;50.194;18.948;2023-10-13T06:54:30;101988.87;;;16.87;85.15
24013;BME280;12220;50.194;18.948;2023-10-13T06:56:36;101985.90;;;16.90;85.08
24013;BME280;12220;50.194;18.948;2023-10-13T06:58:40;101986.56;;;16.94;85.01
24013;BME280;12220;50.194;18.948;2023-10-13T07:00:47;101990.95;;;16.96;85.02
24013;BME280;12220;50.194;18.948;2023-10-13T07:02:56;101989.83;;;16.99;84.95
24013;BME280;12220;50.194;18.948;2023-10-13T07:05:07;101981.17;;;17.03;84.89
24013;BME280;12220;50.194;18.948;2023-10-13T07:07:12;101992.12;;;17.05;84.85
24013;BME280;12220;50.194;18.948;2023-10-13T07:09:17;101986.34;;;17.08;84.85
24013;BME280;12220;50.194;18.948;2023-10-13T07:11:30;101982.46;;;17.11;84.78
24013;BME280;12220;50.194;18.948;2023-10-13T07:13:34;101983.24;;;17.13;84.73
24013;BME280;12220;50.194;18.948;2023-10-13T07:15:43;101989.39;;;17.16;84.75
24013;BME280;12220;50.194;18.948;2023-10-13T07:17:48;101993.82;;;17.19;84.71
24013;BME280;12220;50.194;18.948;2023-10-13T07:20:00;101992.59;;;17.23;84.66
24013;BME280;12220;50.194;18.948;2023-10-13T07:22:14;101994.98;;;17.28;84.64
24013;BME280;12220;50.194;18.948;2023-10-13T07:24:22;102000.27;;;17.31;84.56
24013;BME280;12220;50.194;18.948;2023-10-13T07:26:26;101999.40;;;17.30;84.75
24013;BME280;12220;50.194;18.948;2023-10-13T07:28:30;101996.39;;;17.33;84.40
24013;BME280;12220;50.194;18.948;2023-10-13T07:30:32;102002.67;;;17.35;84.36
24013;BME280;12220;50.194;18.948;2023-10-13T07:32:44;101995.88;;;17.39;84.27
24013;BME280;12220;50.194;18.948;2023-10-13T07:34:54;101994.64;;;17.43;84.21
24013;BME280;12220;50.194;18.948;2023-10-13T07:37:02;101997.17;;;17.47;84.14
24013;BME280;12220;50.194;18.948;2023-10-13T07:39:23;102003.34;;;17.50;84.00
24013;BME280;12220;50.194;18.948;2023-10-13T07:41:26;101996.80;;;17.51;83.95
24013;BME280;12220;50.194;18.948;2023-10-13T07:43:33;101999.31;;;17.54;83.88
24013;BME280;12220;50.194;18.948;2023-10-13T07:45:39;102000.85;;;17.58;83.84
24013;BME280;12220;50.194;18.948;2023-10-13T07:47:42;102004.27;;;17.62;83.67
24013;BME280;12220;50.194;18.948;2023-10-13T07:49:43;101999.48;;;17.64;83.55
24013;BME280;12220;50.194;18.948;2023-10-13T07:51:46;102001.99;;;17.67;83.45
24013;BME280;12220;50.194;18.948;2023-10-13T07:53:52;102003.52;;;17.71;83.31
24013;BME280;12220;50.194;18.948;2023-10-13T07:55:54;102003.27;;;17.74;83.24
24013;BME280;12220;50.194;18.948;2023-10-13T07:58:15;101989.16;;;17.77;83.10
24013;BME280;12220;50.194;18.948;2023-10-13T08:00:16;101990.80;;;17.80;82.97
24013;BME280;12220;50.194;18.948;2023-10-13T08:02:30;101993.20;;;17.85;82.86
24013;BME280;12220;50.194;18.948;2023-10-13T08:04:43;101990.05;;;17.89;82.75
24013;BME280;12220;50.194;18.948;2023-10-13T08:06:44;101998.05;;;17.94;82.62
24013;BME280;12220;50.194;18.948;2023-10-13T08:08:56;101987.45;;;17.99;82.62
24013;BME280;12220;50.194;18.948;2023-10-13T08:11:17;101996.28;;;18.04;82.47
24013;BME280;12220;50.194;18.948;2023-10-13T08:13:39;102004.09;;;18.10;82.39
24013;BME280;12220;50.194;18.948;2023-10-13T08:15:48;101994.52;;;18.15;82.20
24013;BME280;12220;50.194;18.948;2023-10-13T08:17:50;101998.03;;;18.17;82.02
24013;BME280;12220;50.194;18.948;2023-10-13T08:19:53;102000.66;;;18.18;81.51
24013;BME280;12220;50.194;18.948;2023-10-13T08:21:59;101998.28;;;18.25;81.70
24013;BME280;12220;50.194;18.948;2023-10-13T08:24:00;101997.03;;;18.29;81.59
24013;BME280;12220;50.194;18.948;2023-10-13T08:26:10;101992.09;;;18.33;81.49
24013;BME280;12220;50.194;18.948;2023-10-13T08:28:24;101995.38;;;18.38;81.38
24013;BME280;12220;50.194;18.948;2023-10-13T08:30:39;101999.51;;;18.43;81.13
24013;BME280;12220;50.194;18.948;2023-10-13T08:32:54;101996.38;;;18.48;80.90
24013;BME280;12220;50.194;18.948;2023-10-13T08:34:56;102006.17;;;18.52;80.60
24013;BME280;12220;50.194;18.948;2023-10-13T08:37:17;101991.17;;;18.55;80.22
24013;BME280;12220;50.194;18.948;2023-10-13T08:39:38;102001.86;;;18.59;79.70
24013;BME280;12220;50.194;18.948;2023-10-13T08:42:00;102000.00;;;18.60;79.59
24013;BME280;12220;50.194;18.948;2023-10-13T08:44:22;101995.83;;;18.66;79.62
24013;BME280;12220;50.194;18.948;2023-10-13T08:46:42;101986.97;;;18.72;79.63
24013;BME280;12220;50.194;18.948;2023-10-13T08:49:05;101981.77;;;18.78;79.59
24013;BME280;12220;50.194;18.948;2023-10-13T08:51:25;101988.55;;;18.86;79.38
24013;BME280;12220;50.194;18.948;2023-10-13T08:53:47;101985.31;;;18.92;78.71
24013;BME280;12220;50.194;18.948;2023-10-13T08:56:09;101984.77;;;18.98;78.78
24013;BME280;12220;50.194;18.948;2023-10-13T08:58:29;101778.84;;;17.86;78.12
24013;BME280;12220;50.194;18.948;2023-10-13T09:00:51;101977.27;;;19.10;77.90
24013;BME280;12220;50.194;18.948;2023-10-13T09:03:12;101972.20;;;19.15;77.12
24013;BME280;12220;50.194;18.948;2023-10-13T09:05:33;101976.21;;;19.22;77.02
24013;BME280;12220;50.194;18.948;2023-10-13T09:07:45;101968.75;;;19.23;75.78
24013;BME280;12220;50.194;18.948;2023-10-13T09:09:50;101969.07;;;19.29;76.22
24013;BME280;12220;50.194;18.948;2023-10-13T09:14:13;101962.32;;;19.43;76.16
24013;BME280;12220;50.194;18.948;2023-10-13T09:16:25;101964.55;;;19.49;75.79
24013;BME280;12220;50.194;18.948;2023-10-13T09:18:38;101968.68;;;19.55;75.75
24013;BME280;12220;50.194;18.948;2023-10-13T09:21:03;101965.48;;;19.60;75.55
24013;BME280;12220;50.194;18.948;2023-10-13T09:23:20;101974.16;;;19.66;74.91
24013;BME280;12220;50.194;18.948;2023-10-13T09:25:41;101967.17;;;19.72;74.86
24013;BME280;12220;50.194;18.948;2023-10-13T09:28:12;101960.95;;;19.80;74.96
24013;BME280;12220;50.194;18.948;2023-10-13T09:30:24;101968.73;;;19.86;74.88
24013;BME280;12220;50.194;18.948;2023-10-13T09:32:32;101969.49;;;19.88;74.55
24013;BME280;12220;50.194;18.948;2023-10-13T09:34:44;101973.62;;;19.94;74.20
24013;BME280;12220;50.194;18.948;2023-10-13T09:36:47;101968.78;;;19.96;73.17
24013;BME280;12220;50.194;18.948;2023-10-13T09:38:54;101972.29;;;19.98;73.06
24013;BME280;12220;50.194;18.948;2023-10-13T09:41:10;101769.97;;;18.89;73.23
24013;BME280;12220;50.194;18.948;2023-10-13T09:43:31;101968.83;;;20.06;71.89
24013;BME280;12220;50.194;18.948;2023-10-13T09:45:34;101961.98;;;20.10;71.74
24013;BME280;12220;50.194;18.948;2023-10-13T09:47:50;101969.90;;;20.14;71.86
24013;BME280;12220;50.194;18.948;2023-10-13T09:49:59;101968.73;;;20.17;71.21
24013;BME280;12220;50.194;18.948;2023-10-13T09:52:06;101971.66;;;20.15;70.32
24013;BME280;12220;50.194;18.948;2023-10-13T09:56:40;101971.67;;;20.25;70.30
24013;BME280;12220;50.194;18.948;2023-10-13T09:59:01;101974.17;;;20.28;69.77
24013;BME280;12220;50.194;18.948;2023-10-13T10:01:25;101968.45;;;20.30;69.37
24013;BME280;12220;50.194;18.948;2023-10-13T10:03:46;101970.09;;;20.32;69.53
24013;BME280;12220;50.194;18.948;2023-10-13T10:06:05;101963.80;;;20.40;69.64
24013;BME280;12220;50.194;18.948;2023-10-13T10:08:24;101955.93;;;20.45;69.79
24013;BME280;12220;50.194;18.948;2023-10-13T10:10:55;101957.41;;;20.49;69.20
24013;BME280;12220;50.194;18.948;2023-10-13T10:13:15;101956.81;;;20.55;69.82
24013;BME280;12220;50.194;18.948;2023-10-13T10:15:35;101958.45;;;20.58;69.18
24013;BME280;12220;50.194;18.948;2023-10-13T10:17:49;101939.39;;;20.63;68.84
24013;BME280;12220;50.194;18.948;2023-10-13T10:19:53;101935.89;;;20.61;68.46
24013;BME280;12220;50.194;18.948;2023-10-13T10:22:05;101934.73;;;20.64;68.33
24013;BME280;12220;50.194;18.948;2023-10-13T10:24:21;101943.79;;;20.66;68.26
24013;BME280;12220;50.194;18.948;2023-10-13T10:26:37;101939.16;;;20.66;68.27
24013;BME280;12220;50.194;18.948;2023-10-13T10:28:39;101937.41;;;20.75;68.51
24013;BME280;12220;50.194;18.948;2023-10-13T10:30:52;101921.59;;;20.85;68.47
24013;BME280;12220;50.194;18.948;2023-10-13T10:32:57;101921.72;;;20.94;68.22
24013;BME280;12220;50.194;18.948;2023-10-13T10:35:11;101925.67;;;21.01;67.89
24013;BME280;12220;50.194;18.948;2023-10-13T10:37:22;101918.79;;;21.15;67.96
24013;BME280;12220;50.194;18.948;2023-10-13T10:39:35;101912.46;;;21.22;67.48
24013;BME280;12220;50.194;18.948;2023-10-13T10:41:46;101910.84;;;21.30;66.92
24013;BME280;12220;50.194;18.948;2023-10-13T10:44:00;101914.19;;;21.33;66.28
24013;BME280;12220;50.194;18.948;2023-10-13T10:46:28;101908.50;;;21.35;65.63
24013;BME280;12220;50.194;18.948;2023-10-13T10:48:40;101903.78;;;21.35;65.75
24013;BME280;12220;50.194;18.948;2023-10-13T10:50:52;101907.88;;;21.41;65.82
24013;BME280;12220;50.194;18.948;2023-10-13T10:52:57;101898.78;;;21.39;65.33
24013;BME280;12220;50.194;18.948;2023-10-13T10:54:59;101910.52;;;21.42;65.24
24013;BME280;12220;50.194;18.948;2023-10-13T10:57:01;101892.34;;;21.38;65.00
24013;BME280;12220;50.194;18.948;2023-10-13T10:59:23;101894.41;;;21.36;64.86
24013;BME280;12220;50.194;18.948;2023-10-13T11:01:30;101904.96;;;21.33;64.72
24013;BME280;12220;50.194;18.948;2023-10-13T11:03:38;101908.20;;;21.38;64.95
24013;BME280;12220;50.194;18.948;2023-10-13T11:05:45;101903.34;;;21.40;65.01
24013;BME280;12220;50.194;18.948;2023-10-13T11:07:47;101903.03;;;21.43;64.61
24013;BME280;12220;50.194;18.948;2023-10-13T11:10:09;101900.99;;;21.45;64.50
24013;BME280;12220;50.194;18.948;2023-10-13T11:12:26;101895.82;;;21.50;64.58
24013;BME280;12220;50.194;18.948;2023-10-13T11:14:29;101896.59;;;21.52;64.11
24013;BME280;12220;50.194;18.948;2023-10-13T11:16:31;101905.98;;;21.51;63.52
24013;BME280;12220;50.194;18.948;2023-10-13T11:18:35;101903.75;;;21.55;63.80
24013;BME280;12220;50.194;18.948;2023-10-13T11:20:42;101909.02;;;21.58;64.08
24013;BME280;12220;50.194;18.948;2023-10-13T11:22:48;101901.88;;;21.55;63.72
24013;BME280;12220;50.194;18.948;2023-10-13T11:24:51;101893.35;;;21.57;64.03
24013;BME280;12220;50.194;18.948;2023-10-13T11:26:54;101885.86;;;21.57;64.09
24013;BME280;12220;50.194;18.948;2023-10-13T11:28:58;101883.78;;;21.59;64.33
24013;BME280;12220;50.194;18.948;2023-10-13T11:30:59;101880.99;;;21.59;64.28
24013;BME280;12220;50.194;18.948;2023-10-13T11:33:10;101870.28;;;21.65;64.18
24013;BME280;12220;50.194;18.948;2023-10-13T11:35:12;101866.48;;;21.66;63.98
24013;BME280;12220;50.194;18.948;2023-10-13T11:37:25;101878.02;;;21.71;64.20
24013;BME280;12220;50.194;18.948;2023-10-13T11:39:40;101880.50;;;21.74;63.99
24013;BME280;12220;50.194;18.948;2023-10-13T11:41:53;101874.77;;;21.75;63.85
24013;BME280;12220;50.194;18.948;2023-10-13T11:43:55;101885.21;;;21.73;63.31
24013;BME280;12220;50.194;18.948;2023-10-13T11:46:14;101879.17;;;21.78;63.51
24013;BME280;12220;50.194;18.948;2023-10-13T11:48:17;101875.05;;;21.82;63.47
24013;BME280;12220;50.194;18.948;2023-10-13T11:50:20;101869.00;;;21.87;63.29
24013;BME280;12220;50.194;18.948;2023-10-13T11:52:34;101874.12;;;21.91;63.28
24013;BME280;12220;50.194;18.948;2023-10-13T11:54:35;101874.85;;;21.93;63.26
24013;BME280;12220;50.194;18.948;2023-10-13T11:56:42;101871.90;;;21.95;62.91
24013;BME280;12220;50.194;18.948;2023-10-13T11:58:44;101855.16;;;21.95;62.89
24013;BME280;12220;50.194;18.948;2023-10-13T12:00:49;101855.88;;;21.97;63.03
24013;BME280;12220;50.194;18.948;2023-10-13T12:03:10;101862.91;;;22.01;63.26
24013;BME280;12220;50.194;18.948;2023-10-13T12:05:31;101861.26;;;22.08;63.48
24013;BME280;12220;50.194;18.948;2023-10-13T12:07:53;101859.75;;;22.14;63.43
24013;BME280;12220;50.194;18.948;2023-10-13T12:10:14;101853.86;;;22.17;63.48
24013;BME280;12220;50.194;18.948;2023-10-13T12:12:36;101852.10;;;22.16;63.18
24013;BME280;12220;50.194;18.948;2023-10-13T12:14:57;101856.80;;;22.16;63.18
24013;BME280;12220;50.194;18.948;2023-10-13T12:17:04;101857.99;;;22.13;63.29
24013;BME280;12220;50.194;18.948;2023-10-13T12:19:19;101855.52;;;22.10;63.26
24013;BME280;12220;50.194;18.948;2023-10-13T12:21:24;101863.34;;;22.06;63.27
24013;BME280;12220;50.194;18.948;2023-10-13T12:23:26;101848.49;;;22.06;63.43
24013;BME280;12220;50.194;18.948;2023-10-13T12:25:33;101854.38;;;22.03;63.42
24013;BME280;12220;50.194;18.948;2023-10-13T12:27:45;101852.63;;;22.02;63.60
24013;BME280;12220;50.194;18.948;2023-10-13T12:29:52;101854.38;;;22.03;63.79
24013;BME280;12220;50.194;18.948;2023-10-13T12:31:54;101850.73;;;22.02;63.86
24013;BME280;12220;50.194;18.948;2023-10-13T12:34:11;101856.16;;;22.04;63.95
24013;BME280;12220;50.194;18.948;2023-10-13T12:36:32;101845.86;;;22.04;63.92
24013;BME280;12220;50.194;18.948;2023-10-13T12:38:54;101845.38;;;22.09;63.68
24013;BME280;12220;50.194;18.948;2023-10-13T12:41:18;101844.46;;;22.18;63.85
24013;BME280;12220;50.194;18.948;2023-10-13T12:43:36;101846.61;;;22.24;63.56
24013;BME280;12220;50.194;18.948;2023-10-13T12:45:58;101841.45;;;22.29;63.30
24013;BME280;12220;50.194;18.948;2023-10-13T12:48:19;101830.88;;;22.33;63.09
24013;BME280;12220;50.194;18.948;2023-10-13T12:50:41;101841.55;;;22.38;63.02
24013;BME280;12220;50.194;18.948;2023-10-13T12:52:45;101835.81;;;22.39;62.90
24013;BME280;12220;50.194;18.948;2023-10-13T12:54:47;101826.95;;;22.44;62.47
24013;BME280;12220;50.194;18.948;2023-10-13T12:57:01;101825.93;;;22.45;62.42
24013;BME280;12220;50.194;18.948;2023-10-13T12:59:03;101822.11;;;22.46;62.39
24013;BME280;12220;50.194;18.948;2023-10-13T13:03:27;101816.90;;;22.51;62.57
24013;BME280;12220;50.194;18.948;2023-10-13T13:05:30;101818.67;;;22.52;62.59
24013;BME280;12220;50.194;18.948;2023-10-13T13:07:32;101817.06;;;22.50;62.47
24013;BME280;12220;50.194;18.948;2023-10-13T13:09:44;101819.48;;;22.44;62.35
24013;BME280;12220;50.194;18.948;2023-10-13T13:11:56;101808.80;;;22.40;62.26
24013;BME280;12220;50.194;18.948;2023-10-13T13:14:00;101811.63;;;22.30;62.49
24013;BME280;12220;50.194;18.948;2023-10-13T13:16:02;101809.86;;;22.29;62.54
24013;BME280;12220;50.194;18.948;2023-10-13T13:18:05;101806.53;;;22.25;62.77
24013;BME280;12220;50.194;18.948;2023-10-13T13:20:12;101817.43;;;22.19;63.03
24013;BME280;12220;50.194;18.948;2023-10-13T13:22:32;101806.27;;;22.19;63.26
24013;BME280;12220;50.194;18.948;2023-10-13T13:24:33;101795.91;;;22.11;63.26
24013;BME280;12220;50.194;18.948;2023-10-13T13:26:35;101795.44;;;22.16;63.54
24013;BME280;12220;50.194;18.948;2023-10-13T13:28:37;101797.03;;;22.18;63.73
24013;BME280;12220;50.194;18.948;2023-10-13T13:30:50;101806.85;;;22.22;63.79
24013;BME280;12220;50.194;18.948;2023-10-13T13:32:55;101789.95;;;22.24;63.83
24013;BME280;12220;50.194;18.948;2023-10-13T13:34:59;101784.21;;;22.25;63.79
24013;BME280;12220;50.194;18.948;2023-10-13T13:37:08;101777.44;;;22.28;63.93
24013;BME280;12220;50.194;18.948;2023-10-13T13:39:13;101771.53;;;22.31;64.02
24013;BME280;12220;50.194;18.948;2023-10-13T13:41:25;101767.55;;;22.34;63.90
24013;BME280;12220;50.194;18.948;2023-10-13T13:43:26;101770.05;;;22.37;63.93
24013;BME280;12220;50.194;18.948;2023-10-13T13:45:40;101775.30;;;22.40;63.83
24013;BME280;12220;50.194;18.948;2023-10-13T13:47:43;101787.88;;;22.44;63.79
24013;BME280;12220;50.194;18.948;2023-10-13T13:49:44;101783.20;;;22.44;63.38
24013;BME280;12220;50.194;18.948;2023-10-13T13:52:09;101787.27;;;22.50;63.36
24013;BME280;12220;50.194;18.948;2023-10-13T13:54:10;101780.79;;;22.50;63.19
24013;BME280;12220;50.194;18.948;2023-10-13T13:56:12;101786.37;;;22.50;63.04
24013;BME280;12220;50.194;18.948;2023-10-13T13:58:17;101778.15;;;22.48;63.14
24013;BME280;12220;50.194;18.948;2023-10-13T14:00:20;101775.20;;;22.50;63.29
24013;BME280;12220;50.194;18.948;2023-10-13T14:02:42;101777.66;;;22.53;63.40
24013;BME280;12220;50.194;18.948;2023-10-13T14:04:48;101773.85;;;22.54;63.42
24013;BME280;12220;50.194;18.948;2023-10-13T14:06:53;101590.00;;;21.34;63.24
24013;BME280;12220;50.194;18.948;2023-10-13T14:08:56;101772.49;;;22.58;63.27
24013;BME280;12220;50.194;18.948;2023-10-13T14:11:00;101775.28;;;22.58;63.14
24013;BME280;12220;50.194;18.948;2023-10-13T14:13:19;101781.19;;;22.55;63.00
24013;BME280;12220;50.194;18.948;2023-10-13T14:15:28;101780.63;;;22.51;62.95
24013;BME280;12220;50.194;18.948;2023-10-13T14:17:29;101785.50;;;22.49;63.04
24013;BME280;12220;50.194;18.948;2023-10-13T14:19:36;101776.72;;;22.44;63.04
24013;BME280;12220;50.194;18.948;2023-10-13T14:21:46;101774.42;;;22.39;63.06
24013;BME280;12220;50.194;18.948;2023-10-13T14:23:55;101557.91;;;21.12;63.00
24013;BME280;12220;50.194;18.948;2023-10-13T14:26:01;101770.80;;;22.29;63.07
24013;BME280;12220;50.194;18.948;2023-10-13T14:28:06;101762.92;;;22.24;63.18
24013;BME280;12220;50.194;18.948;2023-10-13T14:30:08;101774.57;;;22.20;63.31
24013;BME280;12220;50.194;18.948;2023-10-13T14:32:11;101777.66;;;22.17;63.48
24013;BME280;12220;50.194;18.948;2023-10-13T14:34:15;101794.89;;;22.12;63.66
24013;BME280;12220;50.194;18.948;2023-10-13T14:36:17;101769.78;;;22.12;63.73
24013;BME280;12220;50.194;18.948;2023-10-13T14:38:21;101774.30;;;22.13;63.84
24013;BME280;12220;50.194;18.948;2023-10-13T14:40:25;101765.55;;;22.08;63.81
24013;BME280;12220;50.194;18.948;2023-10-13T14:42:28;101771.45;;;22.05;63.85
24013;BME280;12220;50.194;18.948;2023-10-13T14:44:29;101763.38;;;22.02;63.99
24013;BME280;12220;50.194;18.948;2023-10-13T14:46:33;101586.17;;;20.89;64.08
24013;BME280;12220;50.194;18.948;2023-10-13T14:48:40;101759.50;;;21.94;64.30
24013;BME280;12220;50.194;18.948;2023-10-13T14:50:42;101754.20;;;21.91;64.36
24013;BME280;12220;50.194;18.948;2023-10-13T14:52:49;101756.28;;;21.89;64.54
24013;BME280;12220;50.194;18.948;2023-10-13T14:54:54;101753.66;;;21.88;64.70
24013;BME280;12220;50.194;18.948;2023-10-13T14:57:02;101749.26;;;21.85;64.82
24013;BME280;12220;50.194;18.948;2023-10-13T14:59:04;101756.91;;;21.83;64.90
24013;BME280;12220;50.194;18.948;2023-10-13T15:01:10;101747.66;;;21.83;65.00
24013;BME280;12220;50.194;18.948;2023-10-13T15:03:12;101775.85;;;21.80;65.08
24013;BME280;12220;50.194;18.948;2023-10-13T15:05:14;101747.27;;;21.78;65.20
24013;BME280;12220;50.194;18.948;2023-10-13T15:07:17;101757.84;;;21.74;65.31
24013;BME280;12220;50.194;18.948;2023-10-13T15:09:23;101754.34;;;21.72;65.37
24013;BME280;12220;50.194;18.948;2023-10-13T15:11:27;101748.06;;;21.70;65.51
24013;BME280;12220;50.194;18.948;2023-10-13T15:13:41;101747.32;;;21.68;65.58
24013;BME280;12220;50.194;18.948;2023-10-13T15:15:49;101744.54;;;21.68;65.68
24013;BME280;12220;50.194;18.948;2023-10-13T15:17:50;101745.55;;;21.67;65.72
24013;BME280;12220;50.194;18.948;2023-10-13T15:19:51;101734.73;;;21.64;65.82
24013;BME280;12220;50.194;18.948;2023-10-13T15:21:54;101740.30;;;21.64;65.84
24013;BME280;12220;50.194;18.948;2023-10-13T15:24:04;101727.58;;;21.61;65.87
24013;BME280;12220;50.194;18.948;2023-10-13T15:26:14;101727.87;;;21.58;65.93
24013;BME280;12220;50.194;18.948;2023-10-13T15:28:16;101732.73;;;21.56;65.97
24013;BME280;12220;50.194;18.948;2023-10-13T15:30:24;101734.65;;;21.55;66.04
24013;BME280;12220;50.194;18.948;2023-10-13T15:32:37;101540.97;;;20.40;66.02